createdAt,value
2024-02-02T00:00:47.701Z,29.27
2024-02-02T00:03:14.697Z,28.48
2024-02-02T00:05:41.468Z,30.40
2024-02-02T00:08:08.157Z,27.40
2024-02-02T00:10:35.056Z,30.55
2024-02-02T00:13:01.931Z,40.08
2024-02-02T00:15:29.122Z,32.60
2024-02-02T00:17:55.994Z,27.15
2024-02-02T00:20:22.909Z,25.90
2024-02-02T00:22:49.649Z,21.95
2024-02-02T00:25:16.447Z,27.15
2024-02-02T00:27:43.926Z,25.67
2024-02-02T00:30:11.424Z,30.60
2024-02-02T00:32:41.184Z,31.25
2024-02-02T00:35:08.109Z,35.45
2024-02-02T00:37:34.790Z,25.83
2024-02-02T00:40:01.469Z,32.72
2024-02-02T00:42:28.449Z,24.17
2024-02-02T00:44:55.397Z,21.73
2024-02-02T00:47:22.261Z,25.02
2024-02-02T00:49:48.982Z,26.58
2024-02-02T00:52:15.873Z,29.23
2024-02-02T00:54:42.620Z,33.67
2024-02-02T00:57:09.412Z,30.42
2024-02-02T00:59:36.122Z,26.05
2024-02-02T01:02:02.849Z,36.90
2024-02-02T01:04:29.730Z,24.02
2024-02-02T01:06:56.528Z,30.13
2024-02-02T01:09:23.328Z,31.35
2024-02-02T01:11:54.494Z,25.27
2024-02-02T01:14:23.625Z,35.83
2024-02-02T01:16:50.425Z,41.40
2024-02-02T01:19:17.423Z,38.22
2024-02-02T01:21:44.582Z,39.33
2024-02-02T01:24:11.708Z,27.40
2024-02-02T01:26:38.580Z,37.80
2024-02-02T01:29:05.308Z,50.42
2024-02-02T01:31:32.055Z,30.88
2024-02-02T01:33:59.364Z,33.55
2024-02-02T01:36:26.168Z,33.53
2024-02-02T01:38:55.684Z,45.33
2024-02-02T01:41:22.577Z,28.48
2024-02-02T01:43:49.253Z,34.97
2024-02-02T01:46:16.330Z,28.85
2024-02-02T01:48:43.321Z,34.05
2024-02-02T01:51:10.168Z,31.83
2024-02-02T01:53:36.940Z,35.20
2024-02-02T01:56:04.562Z,32.72
2024-02-02T01:58:32.068Z,33.97
2024-02-02T02:00:58.942Z,33.10
2024-02-02T02:03:25.802Z,26.80
2024-02-02T02:05:52.719Z,36.83
2024-02-02T02:08:19.914Z,33.67
2024-02-02T02:10:47.295Z,27.10
2024-02-02T02:13:14.103Z,35.22
2024-02-02T02:15:40.939Z,35.88
2024-02-02T02:18:07.683Z,33.33
2024-02-02T02:20:34.620Z,35.95
2024-02-02T02:23:02.144Z,27.30
2024-02-02T02:25:29.324Z,35.95
2024-02-02T02:27:56.021Z,29.67
2024-02-02T02:30:23.173Z,32.10
2024-02-02T02:32:50.425Z,34.65
2024-02-02T02:35:18.323Z,28.27
2024-02-02T02:37:45.059Z,40.47
2024-02-02T02:40:12.371Z,33.70
2024-02-02T02:42:39.259Z,42.15
2024-02-02T02:45:06.572Z,34.83
2024-02-02T02:47:33.450Z,31.85
2024-02-02T02:50:00.211Z,43.55
2024-02-02T02:52:26.897Z,38.13
2024-02-02T02:54:53.610Z,41.97
2024-02-02T02:57:20.315Z,39.10
2024-02-02T02:59:47.065Z,33.88
2024-02-02T03:02:13.810Z,40.03
2024-02-02T03:04:40.597Z,36.35
2024-02-02T03:07:07.431Z,32.35
2024-02-02T03:09:34.309Z,36.70
2024-02-02T03:12:01.229Z,28.92
2024-02-02T03:14:28.523Z,36.17
2024-02-02T03:16:55.306Z,33.13
2024-02-02T03:19:22.049Z,41.40
2024-02-02T03:21:48.803Z,35.60
2024-02-02T03:24:15.671Z,39.55
2024-02-02T03:26:42.937Z,37.47
2024-02-02T03:29:09.732Z,42.58
2024-02-02T03:31:36.410Z,35.20
2024-02-02T03:34:03.311Z,28.55
2024-02-02T03:36:30.144Z,38.53
2024-02-02T03:38:56.891Z,33.53
2024-02-02T03:41:23.620Z,33.88
2024-02-02T03:43:50.560Z,31.40
2024-02-02T03:46:17.286Z,28.58
2024-02-02T03:48:44.151Z,28.80
2024-02-02T03:51:11.135Z,30.00
2024-02-02T03:53:37.873Z,31.77
2024-02-02T03:56:04.939Z,35.05
2024-02-02T03:58:31.654Z,47.97
2024-02-02T04:00:58.472Z,31.80
2024-02-02T04:03:25.536Z,31.05
2024-02-02T04:05:52.479Z,19.02
2024-02-02T04:08:19.244Z,32.15
2024-02-02T04:10:46.036Z,28.88
2024-02-02T04:13:12.790Z,25.38
2024-02-02T04:15:41.099Z,27.75
2024-02-02T04:20:34.789Z,24.45
2024-02-02T04:23:01.572Z,29.83
2024-02-02T04:25:28.277Z,28.98
2024-02-02T04:27:55.015Z,25.67
2024-02-02T04:30:21.733Z,19.95
2024-02-02T04:32:48.572Z,30.35
2024-02-02T04:35:15.376Z,34.20
2024-02-02T04:37:43.216Z,29.08
2024-02-02T04:40:11.146Z,29.73
2024-02-02T04:42:37.896Z,21.17
2024-02-02T04:45:05.184Z,37.05
2024-02-02T04:47:31.974Z,26.77
2024-02-02T04:49:58.831Z,26.08
2024-02-02T04:52:25.539Z,22.33
2024-02-02T04:54:54.894Z,38.47
2024-02-02T04:57:21.631Z,26.98
2024-02-02T04:59:48.353Z,29.30
2024-02-02T05:02:15.164Z,33.40
2024-02-02T05:04:42.266Z,33.70
2024-02-02T05:07:09.673Z,29.27
2024-02-02T05:09:36.462Z,31.98
2024-02-02T05:12:03.430Z,34.15
2024-02-02T05:14:30.210Z,31.33
2024-02-02T05:16:56.878Z,32.70
2024-02-02T05:19:23.672Z,42.40
2024-02-02T05:21:50.457Z,29.70
2024-02-02T05:24:31.525Z,32.60
2024-02-02T05:27:04.499Z,36.58
2024-02-02T05:29:31.202Z,45.63
2024-02-02T05:31:58.007Z,47.13
2024-02-02T05:34:25.143Z,34.55
2024-02-02T05:36:51.861Z,34.47
2024-02-02T05:39:18.572Z,38.78
2024-02-02T05:41:45.290Z,44.80
2024-02-02T05:44:12.007Z,34.42
2024-02-02T05:46:38.707Z,41.42
2024-02-02T05:49:05.520Z,38.60
2024-02-02T05:51:32.586Z,39.88
2024-02-02T05:53:59.585Z,45.40
2024-02-02T05:56:26.301Z,50.85
2024-02-02T05:58:53.046Z,36.40
2024-02-02T06:01:19.777Z,44.35
2024-02-02T06:03:46.597Z,42.33
2024-02-02T06:06:13.745Z,41.60
2024-02-02T06:08:40.573Z,50.10
2024-02-02T06:11:07.396Z,41.22
2024-02-02T06:13:34.585Z,37.13
2024-02-02T06:16:01.766Z,45.38
2024-02-02T06:18:28.667Z,49.85
2024-02-02T06:20:55.597Z,41.00
2024-02-02T06:23:22.318Z,47.42
2024-02-02T06:25:49.046Z,32.88
2024-02-02T06:28:15.844Z,44.65
2024-02-02T06:30:49.328Z,42.30
2024-02-02T06:33:18.066Z,36.10
2024-02-02T06:35:45.639Z,33.55
2024-02-02T06:38:12.616Z,39.28
2024-02-02T06:40:39.858Z,45.40
2024-02-02T06:43:06.737Z,32.53
2024-02-02T06:45:33.546Z,32.63
2024-02-02T06:48:00.543Z,46.83
2024-02-02T06:50:27.358Z,28.55
2024-02-02T06:52:54.157Z,34.55
2024-02-02T06:55:20.876Z,32.38
2024-02-02T06:57:50.060Z,30.27
2024-02-02T07:00:17.665Z,27.35
2024-02-02T07:02:44.800Z,31.50
2024-02-02T07:05:14.415Z,37.10
2024-02-02T07:07:41.796Z,27.95
2024-02-02T07:10:15.348Z,25.35
2024-02-02T07:13:01.125Z,26.52
2024-02-02T07:15:40.727Z,27.10
2024-02-02T07:18:37.565Z,26.42
2024-02-02T07:21:06.066Z,27.88
2024-02-02T07:23:37.161Z,26.48
2024-02-02T07:26:12.131Z,24.45
2024-02-02T07:28:39.869Z,30.58
2024-02-02T07:31:09.107Z,30.92
2024-02-02T07:33:44.749Z,23.20
2024-02-02T07:36:32.452Z,31.42
2024-02-02T07:38:59.720Z,29.60
2024-02-02T07:41:30.436Z,28.35
2024-02-02T07:44:00.775Z,21.75
2024-02-02T07:46:28.246Z,27.67
2024-02-02T07:48:55.356Z,26.25
2024-02-02T07:51:24.026Z,27.92
2024-02-02T07:53:51.272Z,25.63
2024-02-02T07:56:23.835Z,30.48
2024-02-02T07:58:51.329Z,24.95
2024-02-02T08:01:18.261Z,29.30
2024-02-02T08:03:45.238Z,23.80
2024-02-02T08:06:14.146Z,23.85
2024-02-02T08:08:41.082Z,39.30
2024-02-02T08:11:07.929Z,24.33
2024-02-02T08:13:34.828Z,31.42
2024-02-02T08:16:01.666Z,27.25
2024-02-02T08:18:30.025Z,22.83
2024-02-02T08:20:57.007Z,27.35
2024-02-02T08:23:23.812Z,27.15
2024-02-02T08:25:50.668Z,29.15
2024-02-02T08:28:17.514Z,30.38
2024-02-02T08:30:44.254Z,27.42
2024-02-02T08:33:11.231Z,30.92
2024-02-02T08:35:38.019Z,24.83
2024-02-02T08:38:08.752Z,22.75
2024-02-02T08:40:41.016Z,26.33
2024-02-02T08:43:22.351Z,19.48
2024-02-02T08:45:49.104Z,27.27
2024-02-02T08:48:24.848Z,19.45
2024-02-02T08:50:52.631Z,16.55
2024-02-02T08:53:19.549Z,30.85
2024-02-02T08:55:47.263Z,28.63
2024-02-02T08:58:22.410Z,20.95
2024-02-02T09:00:50.880Z,27.15
2024-02-02T09:03:30.427Z,27.55
2024-02-02T09:05:59.881Z,21.77
2024-02-02T09:08:28.866Z,22.70
2024-02-02T09:11:07.652Z,28.88
2024-02-02T09:13:34.868Z,24.77
2024-02-02T09:16:01.576Z,22.73
2024-02-02T09:18:39.384Z,22.27
2024-02-02T09:21:08.694Z,18.13
2024-02-02T09:23:37.010Z,20.70
2024-02-02T09:26:17.858Z,19.02
2024-02-02T09:28:45.645Z,18.60
2024-02-02T09:31:21.989Z,15.85
2024-02-02T09:33:51.716Z,20.58
2024-02-02T09:36:21.687Z,22.45
2024-02-02T09:38:59.140Z,23.45
2024-02-02T09:42:05.405Z,23.87
2024-02-02T09:44:44.105Z,27.63
2024-02-02T09:47:35.844Z,24.98
2024-02-02T09:50:28.535Z,19.33
2024-02-02T09:53:29.115Z,20.90
2024-02-02T09:56:11.670Z,23.77
2024-02-02T09:59:16.388Z,24.80
2024-02-02T10:01:48.859Z,16.73
2024-02-02T10:04:33.474Z,24.23
2024-02-02T10:07:38.752Z,22.17
2024-02-02T10:10:16.189Z,33.72
2024-02-02T10:12:48.819Z,18.50
2024-02-02T10:15:22.431Z,24.80
2024-02-02T10:18:10.521Z,28.08
2024-02-02T10:20:55.008Z,24.23
2024-02-02T10:23:38.105Z,29.15
2024-02-02T10:26:25.040Z,28.17
2024-02-02T10:29:13.707Z,29.23
2024-02-02T10:32:05.855Z,23.92
2024-02-02T10:34:44.898Z,22.42
2024-02-02T10:37:20.712Z,21.50
2024-02-02T10:39:52.155Z,23.05
2024-02-02T10:42:46.545Z,29.00
2024-02-02T10:45:43.190Z,23.67
2024-02-02T10:48:37.910Z,27.15
2024-02-02T10:51:38.737Z,21.98
2024-02-02T10:54:31.109Z,30.25
2024-02-02T10:57:28.151Z,20.83
2024-02-02T11:00:14.557Z,24.77
2024-02-02T11:02:44.312Z,37.53
2024-02-02T11:05:23.703Z,24.20
2024-02-02T11:08:10.133Z,34.60
2024-02-02T11:10:44.536Z,35.22
2024-02-02T11:13:23.408Z,28.55
2024-02-02T11:16:03.227Z,36.33
2024-02-02T11:18:51.519Z,24.90
2024-02-02T11:21:27.505Z,30.33
2024-02-02T11:24:50.070Z,34.47
2024-02-02T11:27:20.389Z,35.13
2024-02-02T11:29:59.343Z,33.50
2024-02-02T11:33:01.806Z,28.20
2024-02-02T11:35:52.356Z,38.63
2024-02-02T11:38:41.179Z,29.33
2024-02-02T11:41:14.991Z,30.27
2024-02-02T11:43:43.571Z,29.55
2024-02-02T11:46:11.282Z,32.92
2024-02-02T11:48:40.992Z,35.17
2024-02-02T11:51:08.298Z,36.83
2024-02-02T11:53:38.388Z,35.97
2024-02-02T11:56:20.884Z,36.17
2024-02-02T11:58:54.942Z,35.30
2024-02-02T12:01:28.482Z,32.20
2024-02-02T12:04:17.540Z,31.50
2024-02-02T12:07:09.655Z,33.58
2024-02-02T12:09:47.761Z,29.65
2024-02-02T12:12:21.652Z,38.15
2024-02-02T12:14:54.507Z,28.75
2024-02-02T12:17:22.593Z,28.60
2024-02-02T12:19:49.813Z,37.85
2024-02-02T12:22:16.713Z,30.80
2024-02-02T12:24:43.520Z,36.58
2024-02-02T12:27:10.352Z,37.28
2024-02-02T12:29:37.639Z,39.03
2024-02-02T12:32:07.129Z,36.53
2024-02-02T12:34:34.114Z,35.10
2024-02-02T12:37:02.710Z,34.22
2024-02-02T12:39:33.105Z,32.65
2024-02-02T12:42:00.356Z,39.33
2024-02-02T12:44:27.669Z,33.83
2024-02-02T12:46:54.465Z,35.17
2024-02-02T12:49:25.560Z,28.85
2024-02-02T12:51:58.027Z,39.67
2024-02-02T12:54:25.264Z,33.45
2024-02-02T12:56:52.186Z,35.00
2024-02-02T12:59:19.839Z,36.90
2024-02-02T13:01:49.226Z,33.55
2024-02-02T13:04:16.832Z,34.33
2024-02-02T13:06:45.406Z,35.38
2024-02-02T13:09:27.839Z,35.58
2024-02-02T13:11:56.032Z,36.03
2024-02-02T13:14:33.695Z,33.60
2024-02-02T13:17:12.522Z,38.93
2024-02-02T13:19:49.048Z,34.50
2024-02-02T13:22:22.998Z,32.85
2024-02-02T13:24:51.497Z,42.80
2024-02-02T13:27:20.226Z,38.88
2024-02-02T13:29:57.983Z,43.85
2024-02-02T13:32:28.522Z,34.58
2024-02-02T13:34:59.963Z,42.45
2024-02-02T13:37:31.130Z,44.80
2024-02-02T13:40:00.062Z,39.78
2024-02-02T13:42:27.800Z,39.33
2024-02-02T13:44:54.548Z,40.37
2024-02-02T13:47:21.925Z,40.70
2024-02-02T13:49:54.010Z,43.85
2024-02-02T13:52:20.812Z,45.55
2024-02-02T13:54:47.615Z,45.22
2024-02-02T13:57:15.966Z,43.83
2024-02-02T13:59:44.313Z,48.35
2024-02-02T14:02:11.033Z,46.17
2024-02-02T14:04:38.702Z,47.95
2024-02-02T14:07:15.721Z,47.35
2024-02-02T14:09:43.828Z,51.50
2024-02-02T14:12:12.953Z,46.22
2024-02-02T14:14:40.109Z,43.65
2024-02-02T14:17:07.603Z,49.78
2024-02-02T14:19:34.871Z,49.40
2024-02-02T14:22:09.034Z,54.70
2024-02-02T14:24:49.948Z,52.22
2024-02-02T14:27:17.046Z,50.60
2024-02-02T14:29:44.755Z,44.25
2024-02-02T14:32:11.818Z,50.10
2024-02-02T14:34:38.948Z,54.80
2024-02-02T14:37:06.187Z,52.17
2024-02-02T14:39:33.093Z,59.80
2024-02-02T14:42:00.977Z,59.03
2024-02-02T14:44:29.803Z,55.33
2024-02-02T14:46:57.703Z,49.95
2024-02-02T14:49:26.334Z,59.65
2024-02-02T14:51:56.385Z,54.10
2024-02-02T14:54:25.049Z,53.33
2024-02-02T14:56:52.331Z,58.00
2024-02-02T14:59:29.613Z,53.50
2024-02-02T15:01:57.477Z,60.55
2024-02-02T15:04:24.392Z,54.85
2024-02-02T15:06:51.370Z,55.10
2024-02-02T15:09:18.182Z,61.70
2024-02-02T15:11:45.829Z,55.03
2024-02-02T15:14:13.645Z,59.25
2024-02-02T15:16:40.587Z,51.50
2024-02-02T15:19:07.419Z,52.17
2024-02-02T15:21:34.402Z,56.83
2024-02-02T15:24:01.854Z,58.83
2024-02-02T15:26:29.058Z,67.00
2024-02-02T15:28:55.785Z,52.88
2024-02-02T15:31:22.949Z,60.22
2024-02-02T15:33:51.519Z,58.78
2024-02-02T15:36:18.414Z,57.08
2024-02-02T15:39:05.773Z,64.00
2024-02-02T15:41:31.907Z,59.88
2024-02-02T15:43:58.656Z,65.93
2024-02-02T15:46:25.471Z,60.03
2024-02-02T15:48:52.757Z,51.92
2024-02-02T15:51:20.113Z,66.90
2024-02-02T15:53:47.375Z,52.35
2024-02-02T15:56:18.240Z,57.13
2024-02-02T15:58:45.163Z,59.90
2024-02-02T16:01:13.369Z,63.70
2024-02-02T16:03:43.754Z,62.45
2024-02-02T16:06:11.683Z,56.72
2024-02-02T16:08:38.973Z,58.65
2024-02-02T16:11:05.902Z,61.95
2024-02-02T16:13:32.827Z,55.35
2024-02-02T16:16:00.251Z,62.83
2024-02-02T16:18:27.324Z,54.42
2024-02-02T16:20:54.675Z,62.28
2024-02-02T16:23:21.504Z,63.15
2024-02-02T16:25:48.338Z,65.60
2024-02-02T16:28:15.080Z,58.47
2024-02-02T16:30:43.495Z,66.85
2024-02-02T16:33:10.614Z,63.90
2024-02-02T16:35:37.444Z,60.75
2024-02-02T16:38:04.337Z,50.85
2024-02-02T16:40:31.203Z,52.90
2024-02-02T16:42:58.362Z,61.53
2024-02-02T16:45:25.142Z,55.67
2024-02-02T16:47:54.487Z,53.97
2024-02-02T16:50:21.389Z,53.42
2024-02-02T16:52:48.273Z,57.47
2024-02-02T16:55:15.065Z,56.25
2024-02-02T16:57:41.906Z,47.55
2024-02-02T17:00:09.800Z,62.75
2024-02-02T17:02:36.965Z,56.80
2024-02-02T17:05:04.285Z,61.47
2024-02-02T17:07:31.474Z,60.28
2024-02-02T17:09:58.494Z,53.85
2024-02-02T17:12:26.685Z,54.17
2024-02-02T17:14:53.517Z,54.80
2024-02-02T17:17:20.313Z,55.40
2024-02-02T17:19:47.071Z,57.67
2024-02-02T17:22:13.767Z,49.55
2024-02-02T17:24:41.322Z,49.20
2024-02-02T17:27:08.239Z,48.53
2024-02-02T17:29:34.982Z,46.85
2024-02-02T17:32:01.679Z,49.90
2024-02-02T17:34:28.470Z,48.70
2024-02-02T17:36:55.325Z,45.75
2024-02-02T17:39:22.128Z,50.80
2024-02-02T17:41:48.865Z,51.65
2024-02-02T17:44:21.945Z,53.97
2024-02-02T17:46:51.437Z,56.22
2024-02-02T17:49:18.700Z,50.28
2024-02-02T17:51:45.568Z,53.25
2024-02-02T17:54:12.484Z,58.75
2024-02-02T17:56:39.268Z,53.30
2024-02-02T17:59:06.023Z,61.35
2024-02-02T18:01:34.904Z,55.13
2024-02-02T18:04:02.047Z,61.75
2024-02-02T18:06:29.106Z,61.97
2024-02-02T18:08:55.957Z,59.88
2024-02-02T18:11:22.669Z,67.10
2024-02-02T18:13:49.394Z,66.13
2024-02-02T18:16:16.276Z,70.95
2024-02-02T18:18:43.502Z,70.20
2024-02-02T18:21:10.928Z,69.60
2024-02-02T18:23:37.649Z,71.80
2024-02-02T18:26:05.420Z,64.75
2024-02-02T18:28:32.608Z,66.30
2024-02-02T18:30:59.788Z,74.82
2024-02-02T18:33:26.704Z,61.97
2024-02-02T18:35:53.497Z,74.95
2024-02-02T18:38:20.276Z,68.25
2024-02-02T18:40:50.731Z,71.90
2024-02-02T18:43:18.749Z,68.95
2024-02-02T18:45:45.679Z,65.32
2024-02-02T18:48:15.953Z,68.20
2024-02-02T18:50:43.275Z,70.07
2024-02-02T18:53:09.974Z,71.70
2024-02-02T18:55:36.644Z,70.25
2024-02-02T18:58:03.355Z,66.65
2024-02-02T19:00:31.003Z,65.25
2024-02-02T19:02:57.726Z,64.50
2024-02-02T19:05:24.475Z,72.28
2024-02-02T19:07:51.167Z,67.55
2024-02-02T19:10:19.931Z,69.82
2024-02-02T19:12:46.661Z,60.20
2024-02-02T19:15:13.446Z,64.20
2024-02-02T19:17:40.163Z,62.40
2024-02-02T19:20:07.626Z,65.15
2024-02-02T19:22:34.442Z,56.85
2024-02-02T19:25:01.117Z,57.33
2024-02-02T19:27:27.913Z,56.13
2024-02-02T19:29:54.595Z,60.72
2024-02-02T19:32:21.806Z,64.47
2024-02-02T19:34:48.711Z,55.38
2024-02-02T19:37:15.401Z,64.75
2024-02-02T19:39:42.279Z,58.72
2024-02-02T19:42:09.182Z,61.63
2024-02-02T19:44:35.922Z,61.90
2024-02-02T19:47:02.691Z,63.60
2024-02-02T19:49:29.571Z,60.05
2024-02-02T19:51:56.374Z,58.55
2024-02-02T19:54:23.308Z,72.22
2024-02-02T19:56:50.037Z,62.20
2024-02-02T19:59:16.822Z,57.63
2024-02-02T20:01:49.269Z,62.10
2024-02-02T20:04:16.408Z,60.05
2024-02-02T20:06:43.358Z,64.30
2024-02-02T20:09:10.663Z,58.28
2024-02-02T20:11:38.184Z,57.63
2024-02-02T20:14:05.025Z,65.43
2024-02-02T20:16:31.750Z,64.75
2024-02-02T20:18:58.671Z,60.83
2024-02-02T20:21:28.055Z,64.90
2024-02-02T20:23:56.292Z,62.00
2024-02-02T20:26:23.854Z,66.28
2024-02-02T20:28:51.749Z,65.90
2024-02-02T20:31:19.273Z,64.65
2024-02-02T20:33:46.590Z,62.50
2024-02-02T20:36:13.629Z,63.13
2024-02-02T20:38:43.310Z,67.78
2024-02-02T20:41:10.059Z,78.10
2024-02-02T20:43:36.787Z,73.13
2024-02-02T20:46:03.837Z,72.97
2024-02-02T20:48:30.653Z,71.65
2024-02-02T20:50:57.448Z,74.65
2024-02-02T20:53:24.259Z,82.72
2024-02-02T20:55:50.969Z,75.90
2024-02-02T20:58:17.799Z,93.30
2024-02-02T21:00:44.721Z,85.40
2024-02-02T21:03:11.700Z,93.38
2024-02-02T21:05:38.943Z,83.68
2024-02-02T21:08:06.224Z,85.35
2024-02-02T21:10:34.558Z,83.20
2024-02-02T21:13:01.286Z,86.40
2024-02-02T21:15:33.273Z,83.18
2024-02-02T21:18:07.070Z,87.50
2024-02-02T21:20:42.180Z,80.43
2024-02-02T21:23:08.881Z,78.88
2024-02-02T21:25:35.681Z,88.82
2024-02-02T21:28:02.361Z,86.60
2024-02-02T21:30:29.158Z,95.63
2024-02-02T21:32:55.921Z,78.88
2024-02-02T21:35:22.595Z,83.38
2024-02-02T21:37:49.295Z,80.18
2024-02-02T21:40:16.011Z,77.88
2024-02-02T21:42:42.707Z,74.88
2024-02-02T21:45:09.500Z,73.85
2024-02-02T21:47:36.185Z,74.15
2024-02-02T21:50:04.204Z,78.95
2024-02-02T21:52:31.490Z,65.35
2024-02-02T21:54:58.546Z,70.97
2024-02-02T21:57:25.299Z,79.45
2024-02-02T21:59:55.492Z,64.53
2024-02-02T22:02:22.445Z,62.03
2024-02-02T22:04:54.023Z,68.45
2024-02-02T22:07:21.282Z,69.40
2024-02-02T22:09:48.324Z,66.90
2024-02-02T22:12:15.265Z,73.65
2024-02-02T22:14:43.905Z,73.20
2024-02-02T22:19:39.305Z,74.28
2024-02-02T22:22:06.298Z,79.60
2024-02-02T22:24:33.030Z,78.40
2024-02-02T22:26:59.727Z,72.63
2024-02-02T22:29:26.397Z,74.95
2024-02-02T22:31:53.111Z,79.05
2024-02-02T22:34:19.872Z,77.25
2024-02-02T22:36:46.671Z,74.30
2024-02-02T22:39:15.042Z,81.53
2024-02-02T22:41:41.876Z,77.38
2024-02-02T22:44:08.878Z,70.45
2024-02-02T22:46:35.667Z,79.40
2024-02-02T22:49:02.519Z,78.78
2024-02-02T22:51:29.618Z,77.60
2024-02-02T22:53:56.389Z,77.03
2024-02-02T22:56:23.103Z,76.53
2024-02-02T22:58:49.775Z,68.97
2024-02-02T23:01:16.622Z,72.50
2024-02-02T23:03:43.658Z,80.13
2024-02-02T23:06:10.513Z,77.78
2024-02-02T23:08:37.297Z,72.95
2024-02-02T23:11:04.272Z,87.60
2024-02-02T23:13:30.957Z,76.63
2024-02-02T23:15:59.585Z,82.38
2024-02-02T23:18:27.898Z,78.47
2024-02-02T23:20:59.485Z,79.55
2024-02-02T23:23:26.882Z,74.00
2024-02-02T23:25:53.581Z,68.82
2024-02-02T23:28:20.256Z,74.53
2024-02-02T23:30:47.330Z,72.90
2024-02-02T23:33:14.722Z,75.53
2024-02-02T23:35:42.177Z,62.95
2024-02-02T23:38:09.443Z,70.57
2024-02-02T23:40:36.316Z,67.53
2024-02-02T23:43:03.044Z,64.32
2024-02-02T23:45:30.100Z,63.90
2024-02-02T23:47:56.965Z,58.17
2024-02-02T23:50:23.834Z,64.47
2024-02-02T23:52:50.549Z,60.58
2024-02-02T23:55:17.562Z,61.08
2024-02-02T23:57:44.566Z,59.15
